27 mai 2022

Temps Code Temps Temp. Vue Base cloud Vent METAR/SPECI
12:00 pm
I
66 °F 10 mi 800 ft 210° 210° 12 - 19 kt METAR CYOW 271600Z 21012G19KT 10SM -RA OVC008 19/18 A2973 RMK SC8 CIG VRB 7-10 SLP068 DENSITY ALT 1200FT
11:00 am
I
66 °F 6 mi 700 ft 210° 210° 9 - 16 kt METAR CYOW 271500Z 21009G16KT 6SM -RA BR OVC007 19/18 A2973 RMK SC8 CIG VRB 6-9 SLP068 DENSITY ALT 1200FT
10:00 am
I
66 °F 6 mi 800 ft 200° 200° 10 - 17 kt METAR CYOW 271400Z 20010G17KT 6SM -RA BR OVC008 19/18 A2973 RMK SC8 CIG VRB 7-10 SLP070 DENSITY ALT 1100FT
9:00 am
I
64 °F 6 mi 900 ft 200° 200° 10 kt METAR CYOW 271300Z 20010KT 6SM -RA BR OVC009 18/18 A2974 RMK SC8 CIG VRB 8-11 SLP073 DENSITY ALT 1100FT
8:00 am
I
64 °F 6 mi 900 ft 200° 200° 7 kt METAR CYOW 271200Z 20007KT 6SM -RA BR OVC009 18/18 A2975 RMK SC8 CIG VRB 8-11 SLP077 DENSITY ALT 1100FT
7:00 am
I
64 °F 6 mi 900 ft 200° 200° 11 kt METAR CYOW 271100Z 20011KT 6SM BR OVC009 18/17 A2975 RMK SC8 SLP077 DENSITY ALT 1100FT
6:00 am
I
64 °F 6 mi 800 ft 200° 200° 8 kt METAR CYOW 271000Z 20008KT 6SM -RA BR BKN008 OVC040 18/17 A2977 RMK SC7SC1 SLP081 DENSITY ALT 1000FT
5:52 am
I
64 °F 6 mi 900 ft 200° 200° 10 - 17 kt METAR CYOW 270952Z 20010G17KT 6SM -RA BR BKN009 BKN040 18/17 A2977 RMK SC7SC1 SLP081 DENSITY ALT 1000FT
5:44 am
M
64 °F 8 mi 1.200 ft 200° 200° 9 - 15 kt METAR CYOW 270944Z 20009G15KT 8SM -RA FEW007 BKN012 OVC040 18/17 A2976 RMK SF1SC7SC1 SLP080 DENSITY ALT 1000FT
5:00 am
I
64 °F 8 mi 700 ft 190° 190° 10 kt METAR CYOW 270900Z 19010KT 8SM -RA BKN007 BKN012 OVC050 18/17 A2977 RMK SF5SC2SC1 SLP082 DENSITY ALT 1000FT
4:41 am
M
64 °F 15 mi 1.100 ft 190° 190° 10 - 17 kt METAR CYOW 270841Z 19010G17KT 15SM -RA FEW006 BKN011 OVC050 18/17 A2977 RMK SF2SC5SC1 SLP083 DENSITY ALT 1000FT
4:00 am
I
64 °F 10 mi 700 ft 200° 200° 11 - 18 kt METAR CYOW 270800Z 20011G18KT 10SM -RA BKN007 OVC012 18/17 A2978 RMK SC6SC2 SLP085 DENSITY ALT 1000FT
3:29 am
I
64 °F 10 mi 900 ft 200° 200° 14 - 20 kt METAR CYOW 270729Z 20014G20KT 10SM -RA BKN009 OVC045 18/17 A2978 RMK SC6SC2 SLP086 DENSITY ALT 1000FT
3:05 am
M
64 °F 15 mi 1.400 ft 190° 190° 14 - 19 kt METAR CYOW 270705Z 19014G19KT 15SM -RA BKN014 OVC045 18/16 A2979 RMK SC7SC1 SLP089 DENSITY ALT 1000FT
3:00 am
M
64 °F 15 mi 1.500 ft 190° 190° 11 - 18 kt METAR CYOW 270700Z 19011G18KT 15SM -RA BKN015 OVC045 18/16 A2979 RMK SC7SC1 SLP089 DENSITY ALT 1000FT
2:42 am
M
66 °F 15 mi 1.800 ft 200° 200° 13 - 23 kt METAR CYOW 270642Z 20013G23KT 15SM -RA BKN018 OVC050 19/16 A2979 RMK SC6SC2 SLP089 DENSITY ALT 1200FT
2:00 am
V
68 °F 15 mi 6.000 ft 210° 210° 15 - 22 kt METAR CYOW 270600Z 21015G22KT 15SM BKN060 BKN085 20/15 A2980 RMK SC5AC2 SLP093 DENSITY ALT 1200FT
1:00 am
V
70 °F 15 mi 9.000 ft 210° 210° 14 - 22 kt METAR CYOW 270500Z 21014G22KT 15SM SCT050 BKN090 21/15 A2982 RMK SC4AC3 SLP098 DENSITY ALT 1300FT
12:29 am
V
70 °F 15 mi 5.000 ft 210° 210° 16 - 26 kt METAR CYOW 270429Z 21016G26KT 15SM -RA OVC050 21/15 A2982 RMK SC8 SLP099 DENSITY ALT 1300FT
12:00 am
V
72 °F 15 mi 5.000 ft 200° 200° 14 - 25 kt METAR CYOW 270400Z 20014G25KT 15SM BKN050 BKN110 22/15 A2982 RMK SC5AC2 SLP098 DENSITY ALT 1400FT

26 mai 2022

Temps Code Temps Temp. Vue Base cloud Vent METAR/SPECI
11:00 pm
V
70 °F 15 mi 7.200 ft 190° 190° 8 kt METAR CYOW 270300Z 19008KT 15SM -RA BKN072 BKN110 21/16 A2982 RMK AC5AC2 -RA INTMT SLP098 DENSITY ALT 1400FT
10:41 pm
V
72 °F 15 mi 8.500 ft 200° 200° 13 - 19 kt METAR CYOW 270241Z 20013G19KT 15SM -RA FEW050 BKN085 OVC120 22/16 A2982 RMK SC2AC5AC1 SLP099 DENSITY ALT 1400FT
10:00 pm
V
72 °F 15 mi 10.000 ft 200° 200° 13 kt METAR CYOW 270200Z 20013KT 15SM FEW050 BKN100 22/16 A2983 RMK SC1AC6 SLP102 DENSITY ALT 1400FT
9:00 pm
V
73 °F 15 mi 13.000 ft 190° 190° 12 - 19 kt METAR CYOW 270100Z 19012G19KT 15SM FEW040TCU SCT080 BKN130 BKN180 23/15 A2982 RMK TCU1AC4AC2AC1 SH SE SLP100 DENSITY ALT 1500FT
8:00 pm
V
75 °F 15 mi 11.000 ft 210° 210° 12 kt METAR CYOW 270000Z 21012KT 15SM FEW050 SCT085 BKN110 BKN210 24/15 A2983 RMK SC1AC3AC1CI2 SLP102 DENSITY ALT 1600FT
7:00 pm
V
75 °F 15 mi 22.000 ft 210° 210° 12 - 18 kt METAR CYOW 262300Z 21012G18KT 15SM SCT054 SCT080 SCT180 BKN220 24/15 A2983 RMK SC3AC1AC1CI3 AC TR SLP105 DENSITY ALT 1600FT
6:00 pm
V
75 °F 15 mi 8.300 ft 210° 210° 13 - 21 kt METAR CYOW 262200Z 21013G21KT 15SM BKN083 BKN200 24/15 A2985 RMK AC6CI1 SLP109 DENSITY ALT 1700FT
5:00 pm
V
77 °F 15 mi 18.000 ft 210° 210° 17 - 24 kt METAR CYOW 262100Z 21017G24KT 15SM SCT080 BKN180 BKN240 25/15 A2986 RMK AC3AC3CI1 SLP112 DENSITY ALT 1700FT
4:00 pm
V
72 °F 15 mi 3.600 ft 200° 200° 13 kt METAR CYOW 262000Z 20013KT 15SM BKN036 22/14 A2988 RMK SC7 SLP119 DENSITY ALT 1400FT
3:00 pm
V
70 °F 15 mi 4.000 ft 200° 200° 14 - 20 kt METAR CYOW 261900Z 20014G20KT 15SM BKN040 OVC064 21/13 A2990 RMK SC5SC3 SLP129 DENSITY ALT 1300FT
2:00 pm
V
70 °F 15 mi 3.500 ft 200° 200° 11 - 21 kt METAR CYOW 261800Z 20011G21KT 15SM BKN035 OVC058 21/13 A2992 RMK SC5SC3 SLP134 DENSITY ALT 1200FT
1:00 pm
V
70 °F 15 mi 3.500 ft 200° 200° 11 - 19 kt METAR CYOW 261700Z 20011G19KT 15SM BKN035 OVC070 21/13 A2995 RMK SC7AC1 SLP145 DENSITY ALT 1100FT
12:00 pm
V
68 °F 15 mi 3.600 ft 190° 190° 13 - 22 kt METAR CYOW 261600Z 19013G22KT 15SM BKN036 OVC070 20/11 A2997 RMK SC7AC1 SLP150 DENSITY ALT 1100FT
11:00 am
V
68 °F 15 mi 3.800 ft 200° 200° 12 - 17 kt METAR CYOW 261500Z 20012G17KT 150V220 15SM BKN038 OVC070 20/12 A3000 RMK SC6AC2 SLP160 DENSITY ALT 1000FT
10:00 am
V
64 °F 15 mi 5.600 ft 170° 170° 7 kt METAR CYOW 261400Z 17007KT 15SM BKN056 OVC075 18/13 A3001 RMK SC6AC2 SLP166 DENSITY ALT 700FT
9:00 am
V
61 °F 10 mi 5.700 ft 140° 140° 10 kt METAR CYOW 261300Z 14010KT 10SM BKN057 OVC073 16/13 A3004 RMK SC5AC3 SLP176 DENSITY ALT 500FT
8:00 am
V
59 °F 10 mi 7.700 ft 130° 130° 8 kt METAR CYOW 261200Z 13008KT 10SM FEW040 OVC077 15/13 A3007 RMK SC1AC8 SC TR SLP185 DENSITY ALT 400FT
7:36 am
V
59 °F 10 mi 7.600 ft 120° 120° 9 kt METAR CYOW 261136Z 12009KT 10SM FEW040 OVC076 15/13 A3007 RMK SC1AC7 SLP186
7:00 am
V
57 °F 10 mi 7.200 ft 100° 100° 8 kt METAR CYOW 261100Z 10008KT 10SM -RA FEW045 OVC072 14/13 A3008 RMK SC1AC7 SLP189
6:00 am
V
55 °F 10 mi 8.000 ft 090° 090° 8 kt METAR CYOW 261000Z 09008KT 10SM -RA FEW045 SCT060 OVC080 13/12 A3009 RMK SC1SC2AC5 SLP192
5:53 am
V
55 °F 15 mi 8.000 ft 090° 090° 8 kt METAR CYOW 260953Z 09008KT 15SM -RA FEW045 SCT060 OVC080 13/12 A3009 RMK SC2SC2AC4 SLP192
5:37 am
V
55 °F 15 mi 8.500 ft 080° 080° 8 kt METAR CYOW 260937Z 08008KT 15SM FEW045 SCT060 OVC085 13/12 A3009 RMK SC2SC2AC4 SLP194
5:00 am
V
55 °F 6 mi 5.000 ft 100° 100° 5 kt METAR CYOW 260900Z 10005KT 050V120 6SM -RA BR BKN050 OVC090 13/12 A3011 RMK SC6AS2 SLP199
4:00 am
V
55 °F 10 mi 9.200 ft 060° 060° 5 kt METAR CYOW 260800Z 06005KT 10SM -RA OVC092 13/11 A3011 RMK AS8 SLP201
3:00 am
V
59 °F 15 mi 10.000 ft 100° 100° 7 kt METAR CYOW 260700Z 10007KT 15SM -RA FEW060 OVC100 15/09 A3012 RMK SC2AS6 SLP203
2:00 am
V
61 °F 15 mi 9.200 ft 090° 090° 9 kt METAR CYOW 260600Z 09009KT 15SM -RA SCT060 OVC092 16/07 A3014 RMK SC3AS5 SLP207 DENSITY ALT 400FT
1:33 am
V
63 °F 15 mi 9.000 ft 090° 090° 7 kt METAR CYOW 260533Z 09007KT 15SM -RA FEW060 OVC090 17/06 A3014 RMK SC2AC6 SLP211 DENSITY ALT 400FT
1:00 am
V
61 °F 15 mi 6.300 ft 090° 090° 7 kt METAR CYOW 260500Z 09007KT 15SM FEW040 BKN063 OVC100 16/07 A3016 RMK SC1SC5AC2 SLP216 DENSITY ALT 400FT
12:00 am
V
61 °F 15 mi 10.000 ft 090° 090° 7 kt METAR CYOW 260400Z 09007KT 15SM OVC100 16/07 A3019 RMK AS8 SLP226 DENSITY ALT 400FT

25 mai 2022

Temps Code Temps Temp. Vue Base cloud Vent METAR/SPECI
11:43 pm
V
61 °F 15 mi 10.000 ft 110° 110° 7 kt METAR CYOW 260343Z 11007KT 15SM OVC100 16/08 A3020 RMK AS8 SLP228
11:19 pm
V
61 °F 15 mi 10.000 ft 120° 120° 7 kt METAR CYOW 260319Z 12007KT 15SM -RA OVC100 16/08 A3020 RMK AS8 SLP230
11:00 pm
V
61 °F 15 mi 11.000 ft 110° 110° 6 kt METAR CYOW 260300Z 11006KT 15SM OVC110 16/08 A3021 RMK AC8 SLP232
10:00 pm
V
61 °F 15 mi 14.000 ft 100° 100° 5 kt METAR CYOW 260200Z 10005KT 15SM BKN140 BKN190 16/07 A3022 RMK AC5AC2 SLP236
9:00 pm
V
63 °F 15 mi 18.000 ft 080° 080° 5 kt METAR CYOW 260100Z 08005KT 15SM SCT140 BKN180 OVC220 17/07 A3022 RMK AC3AC4CI1 SLP236 DENSITY ALT 400FT
8:00 pm
V
64 °F 15 mi 21.000 ft 070° 070° 4 kt METAR CYOW 260000Z 07004KT 15SM FEW140 SCT170 BKN210 BKN250 18/07 A3023 RMK AC2AC2CI3CI1 CI TR SLP240 DENSITY ALT 500FT
7:00 pm
V
66 °F 15 mi 21.000 ft 130° 130° 5 kt METAR CYOW 252300Z 13005KT 15SM SCT140 BKN210 BKN250 19/06 A3024 RMK AC3CC2CI2 SLP245 DENSITY ALT 700FT
6:00 pm
V
70 °F 15 mi 20.000 ft 130° 130° 5 kt METAR CYOW 252200Z 13005KT 080V150 15SM FEW140 BKN200 BKN250 21/05 A3024 RMK AC1CI5CI1 SLP245 DENSITY ALT 800FT
5:00 pm
V
68 °F 15 mi 22.000 ft 120° 120° 5 kt METAR CYOW 252100Z 12005KT 15SM FEW150 BKN220 20/07 A3025 RMK AC1CI6 SLP248 DENSITY ALT 700FT
4:00 pm
V
70 °F 15 mi 20.000 ft 130° 130° 6 kt METAR CYOW 252000Z 13006KT 060V140 15SM FEW150 BKN200 BKN250 21/04 A3028 RMK AC2CI4CI1 SLP257 DENSITY ALT 800FT
3:00 pm
V
70 °F 15 mi 16.000 ft 120° 120° 8 kt METAR CYOW 251900Z 12008KT 090V170 15SM FEW055 BKN160 BKN220 21/06 A3031 RMK CU1AC5CI2 CU TR SLP267 DENSITY ALT 700FT
2:00 pm
V
70 °F 15 mi 25.000 ft 130° 130° 9 kt METAR CYOW 251800Z 13009KT 060V160 15SM FEW150 SCT210 BKN250 21/05 A3032 RMK AC1CI3CI3 AC TR SLP273 DENSITY ALT 700FT
1:00 pm
V
68 °F 15 mi 24.000 ft Var 000° 0 kt METAR CYOW 251700Z 00000KT 15SM FEW055 BKN240 20/04 A3035 RMK CU1CI6 CU TR SLP279 DENSITY ALT 600FT
12:00 pm
V
68 °F 15 mi 24.000 ft 070° 070° 5 kt METAR CYOW 251600Z 07005KT 030V150 15SM FEW050 BKN240 20/06 A3036 RMK CU1CI5 CU TR SLP286 DENSITY ALT 500FT
11:00 am
V
66 °F 15 mi - 100° 100° 4 kt METAR CYOW 251500Z 10004KT 330V140 15SM FEW050 FEW240 19/04 A3038 RMK CU1CI1 CU TR SLP291 DENSITY ALT 500FT
Données plus anciennes

Télécharge notre application

Un accès facile à toute la météo aéronautique sur ton téléphone portable et ta tablette.
Avec de nombreuses fonctionnalités non disponibles sur le site Web, comme la prise en charge hors ligne et une liste personnelle d'aéroports.

Nous et des tiers suivons ton comportement sur Internet sur notre site Web à l'aide de cookies. Si tu continues, nous supposons que tu acceptes notre politique en matière de cookies. Apprendre plus